Time;durP1;ratioP1;P1;durP2;ratioP2;P2;SDS_P1;SDS_P2;PMS_P1;PMS_P2;Temp;Humidity;BMP_temperature;BMP_pressure;BME280_temperature;BME280_humidity;BME280_pressure;Samples;Min_cycle;Max_cycle;Signal;HPM_P1;HPM_P2
2022/08/09 07:20:37;;;;;;;20.95;16.25;;;18.20;99.90;;;;;;5114936;27;20326;-55
2022/08/09 07:23:08;;;;;;;22.25;16.33;;;18.00;99.90;;;;;;5090507;28;20120;-54
2022/08/09 07:25:45;;;;;;;18.90;15.45;;;18.20;99.90;;;;;;5068384;28;20048;-57
2022/08/09 07:28:12;;;;;;;19.13;14.93;;;18.30;99.90;;;;;;5075715;28;20064;-62
2022/08/09 07:30:52;;;;;;;17.77;14.82;;;18.30;99.90;;;;;;5087113;28;20520;-56
2022/08/09 07:33:20;;;;;;;20.10;14.75;;;18.50;99.90;;;;;;5070133;28;20144;-59
2022/08/09 07:35:48;;;;;;;19.60;13.65;;;18.50;99.90;;;;;;5079626;28;20052;-56
2022/08/09 07:38:20;;;;;;;18.75;14.35;;;18.60;99.90;;;;;;5070261;28;20495;-57
2022/08/09 07:40:49;;;;;;;19.23;13.50;;;18.80;99.90;;;;;;5069901;28;20061;-52
2022/08/09 07:43:35;;;;;;;20.90;14.40;;;19.00;99.90;;;;;;5070014;28;20075;-55
2022/08/09 07:46:15;;;;;;;19.15;15.57;;;19.10;99.90;;;;;;5073645;28;20068;-57
2022/08/09 07:48:45;;;;;;;18.45;14.25;;;19.30;99.90;;;;;;5069991;28;20033;-55
2022/08/09 07:51:24;;;;;;;19.33;13.52;;;19.50;99.90;;;;;;5083056;28;20464;-52
2022/08/09 07:54:11;;;;;;;19.17;12.48;;;19.50;99.90;;;;;;5069908;28;20063;-48
2022/08/09 07:56:39;;;;;;;18.20;14.15;;;19.60;99.90;;;;;;5053074;28;20833;-51
2022/08/09 07:59:15;;;;;;;17.25;13.73;;;19.60;99.90;;;;;;5076302;28;20098;-54
2022/08/09 08:02:02;;;;;;;15.05;13.45;;;19.60;99.90;;;;;;5082281;28;20056;-58
2022/08/09 08:04:30;;;;;;;19.30;13.65;;;19.60;99.90;;;;;;5088770;28;20044;-47
2022/08/09 08:06:59;;;;;;;16.33;12.20;;;19.70;99.90;;;;;;5089003;28;20041;-56
2022/08/09 08:09:46;;;;;;;16.75;12.27;;;19.70;99.90;;;;;;5088984;28;20068;-53
2022/08/09 08:12:20;;;;;;;14.52;11.13;;;19.80;99.90;;;;;;5089084;28;20041;-52
2022/08/09 08:14:53;;;;;;;13.93;10.77;;;19.90;99.90;;;;;;5088832;28;20123;-55
2022/08/09 08:17:20;;;;;;;13.60;9.60;;;19.90;99.90;;;;;;5069755;28;20044;-52
2022/08/09 08:20:07;;;;;;;15.32;8.52;;;19.90;99.90;;;;;;5064042;28;20040;-52
2022/08/09 08:22:39;;;;;;;8.40;7.32;;;20.00;99.90;;;;;;5070476;28;20048;-49
2022/08/09 08:25:05;;;;;;;13.77;7.68;;;20.00;99.90;;;;;;5079632;28;20522;-53
2022/08/09 08:27:39;;;;;;;15.35;8.20;;;20.00;99.90;;;;;;5079427;28;20128;-55
2022/08/09 08:30:08;;;;;;;12.23;7.90;;;20.00;99.90;;;;;;5065953;28;20065;-53
2022/08/09 08:32:36;;;;;;;13.30;8.05;;;20.00;99.90;;;;;;5055896;28;20056;-50
2022/08/09 08:35:19;;;;;;;13.43;6.82;;;19.90;99.90;;;;;;5055862;28;20499;-58
2022/08/09 08:37:48;;;;;;;10.23;5.40;;;20.00;99.90;;;;;;5055647;28;20107;-53
2022/08/09 08:40:30;;;;;;;8.50;5.25;;;19.90;99.90;;;;;;5069247;28;20563;-54
2022/08/09 08:42:57;;;;;;;7.60;5.50;;;19.90;99.90;;;;;;5073753;28;20036;-54
2022/08/09 08:45:24;;;;;;;9.55;4.60;;;20.00;99.90;;;;;;5074899;28;20048;-51
2022/08/09 08:48:03;;;;;;;8.38;4.03;;;19.90;99.90;;;;;;5074652;28;20502;-57
2022/08/09 08:50:31;;;;;;;5.93;4.15;;;20.00;99.60;;;;;;5074846;28;20127;-55
2022/08/09 08:52:57;;;;;;;6.03;3.80;;;20.00;99.50;;;;;;5072854;28;20040;-54
2022/08/09 08:55:26;;;;;;;10.68;4.10;;;20.00;99.30;;;;;;5063813;28;20055;-56
2022/08/09 08:57:53;;;;;;;11.10;4.55;;;20.00;99.30;;;;;;5074501;28;20120;-55
2022/08/09 09:00:23;;;;;;;10.90;4.00;;;20.00;99.00;;;;;;5074642;28;20041;-57
2022/08/09 09:02:56;;;;;;;6.93;3.38;;;20.00;98.60;;;;;;5074454;28;20094;-55
2022/08/09 09:05:28;;;;;;;9.35;3.10;;;20.00;98.40;;;;;;5074321;28;20040;-53
2022/08/09 09:08:15;;;;;;;7.82;2.67;;;20.00;98.10;;;;;;5062127;28;20049;-50
2022/08/09 09:10:57;;;;;;;4.72;2.15;;;20.00;97.50;;;;;;5055033;28;20053;-56
2022/08/09 09:13:23;;;;;;;8.90;2.70;;;20.00;96.40;;;;;;5054953;28;20041;-56
2022/08/09 09:16:07;;;;;;;4.93;2.65;;;20.00;96.90;;;;;;5055295;28;20045;-53
2022/08/09 09:18:35;;;;;;;8.73;2.72;;;20.00;97.10;;;;;;5053645;28;20068;-49
2022/08/09 09:21:02;;;;;;;6.68;2.55;;;20.10;96.60;;;;;;5054973;28;20041;-53
2022/08/09 09:23:29;;;;;;;5.35;2.75;;;20.20;96.30;;;;;;5064486;28;20150;-53
2022/08/09 09:26:03;;;;;;;4.23;2.60;;;20.30;96.70;;;;;;5073992;28;20048;-54
2022/08/09 09:28:38;;;;;;;5.22;2.80;;;20.30;96.60;;;;;;5073938;28;20043;-49
2022/08/09 09:31:25;;;;;;;8.50;3.05;;;20.40;96.50;;;;;;5073936;28;20041;-57
2022/08/09 09:34:12;;;;;;;6.82;2.90;;;20.50;96.50;;;;;;5073879;28;20064;-58
2022/08/09 09:36:40;;;;;;;8.20;2.92;;;20.70;96.50;;;;;;5074219;28;20051;-55
2022/08/09 09:39:18;;;;;;;8.50;2.50;;;20.80;96.10;;;;;;5072415;28;20072;-58
2022/08/09 09:41:45;;;;;;;5.22;2.30;;;20.90;95.40;;;;;;5073120;28;20037;-52
2022/08/09 09:44:15;;;;;;;7.78;2.42;;;20.90;94.40;;;;;;5073296;28;20479;-50
2022/08/09 09:46:51;;;;;;;5.15;2.70;;;20.90;94.30;;;;;;5073504;28;20044;-48
2022/08/09 09:49:20;;;;;;;6.82;3.28;;;20.90;94.50;;;;;;5073482;28;20090;-53
2022/08/09 09:52:07;;;;;;;5.85;2.75;;;21.00;94.80;;;;;;5073416;28;20549;-56
2022/08/09 09:54:54;;;;;;;7.30;2.60;;;21.10;95.00;;;;;;5073308;28;20072;-53
2022/08/09 09:57:21;;;;;;;6.25;2.78;;;21.20;95.20;;;;;;5073138;28;20040;-52
2022/08/09 10:00:08;;;;;;;6.68;2.60;;;21.30;94.60;;;;;;5072202;28;20040;-56
2022/08/09 10:02:37;;;;;;;5.47;2.25;;;21.40;94.20;;;;;;5071972;28;20040;-55
2022/08/09 10:05:03;;;;;;;6.25;2.10;;;21.40;94.00;;;;;;5072994;28;20047;-50
2022/08/09 10:07:32;;;;;;;5.10;2.10;;;21.40;93.80;;;;;;5072053;28;20121;-50
2022/08/09 10:10:00;;;;;;;5.00;1.90;;;21.50;92.60;;;;;;5065752;28;20045;-49
2022/08/09 10:12:28;;;;;;;3.55;1.75;;;21.60;92.00;;;;;;5073009;28;20372;-50
2022/08/09 10:14:57;;;;;;;4.28;2.10;;;21.70;91.40;;;;;;5072830;28;20040;-54
2022/08/09 10:17:24;;;;;;;5.95;1.90;;;21.80;91.40;;;;;;5072361;28;20053;-55
2022/08/09 10:20:10;;;;;;;5.07;2.20;;;21.80;91.40;;;;;;5039669;28;20113;-56
2022/08/09 10:22:40;;;;;;;5.40;2.00;;;21.90;91.00;;;;;;5033939;28;20560;-56
2022/08/09 10:25:07;;;;;;;4.95;2.00;;;22.00;90.70;;;;;;5034703;28;20518;-51
2022/08/09 10:27:40;;;;;;;3.67;1.70;;;22.10;90.70;;;;;;5033531;28;20045;-55
2022/08/09 10:30:21;;;;;;;6.15;1.85;;;22.10;89.70;;;;;;5033287;28;20044;-50
2022/08/09 10:33:08;;;;;;;3.47;1.73;;;22.20;90.40;;;;;;5033638;28;20041;-55
2022/08/09 10:35:55;;;;;;;5.57;1.80;;;22.20;88.20;;;;;;5046838;28;20037;-47
2022/08/09 10:38:26;;;;;;;5.68;1.52;;;22.40;87.70;;;;;;5052611;28;20048;-59
2022/08/09 10:41:13;;;;;;;5.78;1.77;;;22.40;88.10;;;;;;5042906;28;20081;-51
2022/08/09 10:43:40;;;;;;;7.40;1.73;;;22.50;86.30;;;;;;5033578;28;20092;-51
2022/08/09 10:46:24;;;;;;;3.90;1.70;;;22.50;85.20;;;;;;5033458;28;20037;-56
2022/08/09 10:48:52;;;;;;;3.72;1.50;;;22.60;85.40;;;;;;5033198;28;20498;-54
2022/08/09 10:51:19;;;;;;;3.30;1.60;;;22.70;84.80;;;;;;5033125;28;20346;-50
2022/08/09 10:53:55;;;;;;;5.53;1.50;;;22.70;85.30;;;;;;5040049;28;20461;-55
2022/08/09 10:56:22;;;;;;;4.35;1.70;;;22.80;85.70;;;;;;5033158;28;20083;-57
2022/08/09 10:58:51;;;;;;;7.20;1.80;;;22.90;84.20;;;;;;5033179;28;20049;-56
2022/08/09 11:01:20;;;;;;;7.13;1.80;;;22.80;84.00;;;;;;5033255;28;20041;-50
2022/08/09 11:04:06;;;;;;;6.20;1.80;;;22.90;83.90;;;;;;5033352;28;20041;-46
2022/08/09 11:06:53;;;;;;;5.18;1.25;;;22.90;83.50;;;;;;5033168;28;20076;-50
2022/08/09 11:09:23;;;;;;;6.60;1.50;;;23.00;83.10;;;;;;5051853;28;20133;-53
2022/08/09 11:12:00;;;;;;;5.43;1.60;;;23.10;83.30;;;;;;5051917;28;20530;-52
2022/08/09 11:14:31;;;;;;;3.28;1.95;;;23.20;82.50;;;;;;5033443;28;20033;-52
2022/08/09 11:16:57;;;;;;;4.53;1.70;;;23.20;82.10;;;;;;5022843;28;20117;-60
2022/08/09 11:19:24;;;;;;;3.47;1.50;;;23.40;82.50;;;;;;5053899;28;20052;-51
2022/08/09 11:22:11;;;;;;;4.93;1.70;;;23.40;82.80;;;;;;5020721;28;20152;-54
2022/08/09 11:24:51;;;;;;;4.72;1.70;;;23.50;81.80;;;;;;5017384;28;20046;-50
2022/08/09 11:27:18;;;;;;;3.40;1.52;;;23.60;81.00;;;;;;5038193;28;20472;-49
2022/08/09 11:30:05;;;;;;;6.68;1.42;;;23.70;79.50;;;;;;5051866;28;20098;-51
2022/08/09 11:32:51;;;;;;;3.60;1.25;;;23.60;79.10;;;;;;5052143;28;20132;-52
2022/08/09 11:35:20;;;;;;;6.53;1.52;;;23.70;78.70;;;;;;5051862;28;20033;-53
2022/08/09 11:38:00;;;;;;;5.25;1.42;;;23.70;79.90;;;;;;5051954;28;20446;-51
2022/08/09 11:40:28;;;;;;;5.72;1.50;;;23.90;78.90;;;;;;5051950;28;20041;-59
2022/08/09 11:42:56;;;;;;;7.15;1.90;;;23.80;77.60;;;;;;5051955;28;20055;-54
2022/08/09 11:45:23;;;;;;;5.30;1.83;;;23.80;78.10;;;;;;5033849;28;20056;-50
2022/08/09 11:48:03;;;;;;;9.02;1.70;;;23.70;78.40;;;;;;5051923;28;20048;-52
2022/08/09 11:50:45;;;;;;;5.05;1.67;;;23.70;78.00;;;;;;5051660;28;20128;-53
2022/08/09 11:53:31;;;;;;;5.97;1.85;;;23.80;77.80;;;;;;5046350;28;20096;-52
2022/08/09 11:56:24;;;;;;;8.70;1.70;;;23.80;79.10;;;;;;5046913;28;20103;-56
2022/08/09 11:59:10;;;;;;;4.30;1.42;;;23.90;77.50;;;;;;5033836;28;20045;-50
2022/08/09 20:16:35;;;;;;;5.70;2.20;;;21.10;87.10;;;;;;5068774;28;20464;-59
2022/08/09 20:19:20;;;;;;;5.05;2.00;;;20.80;86.70;;;;;;5045570;28;20041;-50
2022/08/09 20:22:07;;;;;;;14.65;2.25;;;20.80;86.30;;;;;;5048772;28;20056;-53
2022/08/09 20:24:39;;;;;;;6.88;2.10;;;20.80;87.70;;;;;;5048145;28;20053;-58
2022/08/09 20:27:07;;;;;;;5.68;1.90;;;20.90;87.70;;;;;;5049602;28;20045;-51
2022/08/09 20:29:37;;;;;;;7.07;2.10;;;20.80;87.80;;;;;;5047555;28;20046;-54
2022/08/09 20:32:04;;;;;;;5.55;1.90;;;20.80;88.40;;;;;;5049522;28;20124;-53
2022/08/09 20:34:51;;;;;;;8.02;2.22;;;20.80;88.20;;;;;;5048284;28;20041;-50
2022/08/09 20:37:18;;;;;;;8.10;2.05;;;20.80;89.10;;;;;;5049337;28;20502;-55
2022/08/09 20:39:48;;;;;;;8.93;2.47;;;20.90;89.70;;;;;;5049228;28;20039;-58
2022/08/09 20:42:34;;;;;;;6.63;2.13;;;20.80;89.90;;;;;;5048609;28;20111;-52
2022/08/09 20:45:03;;;;;;;4.55;1.90;;;20.80;90.10;;;;;;5049176;28;20037;-54
2022/08/09 20:47:50;;;;;;;5.10;2.20;;;20.70;90.40;;;;;;5049262;28;20049;-48
2022/08/09 20:50:17;;;;;;;5.20;2.30;;;20.70;90.60;;;;;;5049254;28;20049;-54
2022/08/09 20:53:04;;;;;;;6.68;2.10;;;20.70;90.50;;;;;;5048494;28;20053;-54
2022/08/09 20:55:46;;;;;;;6.47;2.33;;;20.60;90.80;;;;;;5052550;28;20044;-58
2022/08/09 20:58:27;;;;;;;7.20;2.50;;;20.60;91.20;;;;;;5049026;28;20100;-54
2022/08/09 21:00:58;;;;;;;5.72;2.17;;;20.50;91.40;;;;;;5049133;28;20045;-52
2022/08/09 21:03:45;;;;;;;4.57;1.95;;;20.50;91.10;;;;;;5049019;28;20060;-51
2022/08/09 21:06:32;;;;;;;6.07;2.38;;;20.50;91.20;;;;;;5048710;28;20043;-57
2022/08/09 21:09:00;;;;;;;6.88;2.13;;;20.50;91.60;;;;;;5048895;28;20072;-57
2022/08/09 21:11:28;;;;;;;6.57;2.25;;;20.50;91.70;;;;;;5047448;28;20107;-58
2022/08/09 21:14:14;;;;;;;5.20;2.05;;;20.50;91.60;;;;;;5048979;28;20507;-56
2022/08/09 21:16:43;;;;;;;6.85;2.10;;;20.40;91.90;;;;;;5047272;28;20095;-51
2022/08/09 21:19:11;;;;;;;9.13;2.20;;;20.40;91.80;;;;;;5048558;28;20203;-54
2022/08/09 21:21:58;;;;;;;7.38;2.30;;;20.30;92.10;;;;;;5047863;28;20116;-56
2022/08/09 21:24:25;;;;;;;6.93;2.00;;;20.30;91.90;;;;;;5048523;28;20120;-55
2022/08/09 21:26:58;;;;;;;8.25;2.33;;;20.30;92.30;;;;;;5040640;28;20115;-56
2022/08/09 21:29:24;;;;;;;7.57;2.25;;;20.20;92.30;;;;;;5035335;28;20068;-50
2022/08/09 21:31:52;;;;;;;7.10;2.35;;;20.10;92.50;;;;;;5035204;28;20068;-57
2022/08/09 21:34:18;;;;;;;5.43;2.08;;;20.10;92.40;;;;;;5034323;28;20089;-54
2022/08/09 21:36:55;;;;;;;7.35;1.98;;;20.10;92.60;;;;;;5034745;28;20038;-55
2022/08/09 21:39:22;;;;;;;6.80;2.35;;;20.10;92.70;;;;;;5034872;28;20083;-50
2022/08/09 21:42:07;;;;;;;7.05;2.30;;;20.00;92.80;;;;;;5035039;28;20401;-62
2022/08/09 21:44:36;;;;;;;5.90;2.17;;;20.00;92.80;;;;;;5033652;28;20048;-57
2022/08/09 21:47:03;;;;;;;6.35;1.95;;;19.90;93.10;;;;;;5032431;28;20041;-50
2022/08/09 21:49:30;;;;;;;6.75;2.50;;;19.90;93.30;;;;;;5034902;28;20040;-51
2022/08/09 21:52:08;;;;;;;6.93;2.28;;;19.80;93.30;;;;;;5033643;28;20041;-53
2022/08/09 21:54:43;;;;;;;7.35;2.38;;;19.80;93.30;;;;;;5034590;28;20042;-55
2022/08/09 21:57:15;;;;;;;6.22;1.98;;;19.80;93.50;;;;;;5034530;28;20052;-53
2022/08/09 22:00:02;;;;;;;9.02;2.35;;;19.70;93.40;;;;;;5034155;28;20120;-51
2022/08/09 22:02:38;;;;;;;7.70;2.20;;;19.70;93.70;;;;;;5034613;28;20111;-48
2022/08/09 22:05:09;;;;;;;7.28;2.58;;;19.60;93.80;;;;;;5034453;28;20045;-55
2022/08/09 22:07:49;;;;;;;6.65;2.35;;;19.60;93.90;;;;;;5034586;28;20045;-54
2022/08/09 22:10:20;;;;;;;5.82;2.30;;;19.60;94.00;;;;;;5034500;28;20369;-55
2022/08/09 22:12:49;;;;;;;7.95;2.50;;;19.60;94.10;;;;;;5031865;28;20140;-50
2022/08/09 22:15:17;;;;;;;6.60;2.70;;;19.60;94.30;;;;;;5033067;28;20100;-52
2022/08/09 22:17:49;;;;;;;5.45;2.40;;;19.50;94.50;;;;;;5031327;28;20041;-53
2022/08/09 22:20:16;;;;;;;8.13;2.20;;;19.50;94.50;;;;;;5016853;28;20543;-54
2022/08/09 22:22:56;;;;;;;6.97;2.38;;;19.50;94.60;;;;;;5032833;28;20029;-52
2022/08/09 22:25:23;;;;;;;7.80;2.45;;;19.40;94.90;;;;;;5033801;28;20053;-55
2022/08/09 22:28:10;;;;;;;9.05;2.30;;;19.40;95.00;;;;;;5033909;28;20049;-56
2022/08/09 22:30:37;;;;;;;8.07;2.35;;;19.30;95.10;;;;;;5033905;28;20072;-59
2022/08/09 22:33:14;;;;;;;7.90;2.65;;;19.30;95.10;;;;;;5031613;28;20073;-54
2022/08/09 22:35:43;;;;;;;7.80;2.10;;;19.30;95.00;;;;;;5033645;28;20037;-56
2022/08/09 22:38:28;;;;;;;5.63;2.15;;;19.30;95.20;;;;;;5032747;28;20041;-53
2022/08/09 22:40:56;;;;;;;9.35;2.80;;;19.20;95.40;;;;;;5036240;28;20125;-52
2022/08/09 22:43:24;;;;;;;5.10;2.35;;;19.20;95.40;;;;;;5033998;28;20069;-53
2022/08/09 22:46:10;;;;;;;7.38;2.45;;;19.20;95.40;;;;;;5033676;28;20103;-58
2022/08/09 22:48:57;;;;;;;7.15;2.42;;;19.10;95.50;;;;;;5028250;28;20077;-56
2022/08/09 22:51:35;;;;;;;4.35;2.17;;;19.10;95.50;;;;;;5032114;28;20131;-56
2022/08/09 22:54:03;;;;;;;5.35;2.42;;;19.10;95.60;;;;;;5033671;28;20048;-53
2022/08/09 22:56:33;;;;;;;8.68;2.72;;;19.10;95.50;;;;;;5033501;28;20037;-54
2022/08/09 22:59:01;;;;;;;10.55;2.97;;;19.10;95.60;;;;;;5033658;28;20048;-47
2022/08/09 23:01:48;;;;;;;7.57;2.80;;;19.10;95.60;;;;;;5031928;28;20053;-55
2022/08/09 23:04:15;;;;;;;12.32;2.97;;;19.00;95.80;;;;;;5031759;28;20034;-52
2022/08/09 23:09:28;;;;;;;8.73;3.00;;;18.90;95.80;;;;;;5032398;28;20045;-53
2022/08/09 23:11:54;;;;;;;9.23;3.47;;;18.90;95.80;;;;;;5032325;28;20120;-50
